Main page
METAR-TAF:

METAR-TAF

Airports :

Al-Ahsa International Airport

Al-Hasa, Saudi Arabia

latitude: 25-18N, longitude: 049-29E, elevation: 179 m

Current weather observation

The report was made 26 minutes ago, at 09:00 UTC
Wind 12 kt from the North
Temperature 45°C
Humidity 7%
Pressure 999 hPa
Visibility 10 km or more
no clouds below 1500 m and no cumulonimbus

METAR: OEAH 160900Z 01012KT CAVOK 45/01 Q0999 NOSIG

Time: 12:26 (09:26 UTC)

Forecast

The report was made 11 hours and 26 minutes ago, at 22:00 UTC
Forecast valid from 16 at 00 UTC to 17 at 06 UTC
Wind 7 kt from the West
Visibility 10 km or more
no clouds below 1500 m and no cumulonimbus
Becoming
from 16 at 06 UTC to 16 at 08 UTC
Wind 15 kt from the North
Becoming
from 16 at 20 UTC to 16 at 22 UTC
Wind 7 kt from the West

TAF: OEAH 152200Z 1600/1706 27007KT CAVOK BECMG 1606/1608 36015KT BECMG 1620/1622 26007KT

Weather observations and forecasts of more than 4000 airports (METAR and TAF reports).

The available stations are represented by yellow and red dots on the map.

Hover mouse over dot to see the name of the station.

Then click to see weather observations and forecasts.

To change the map : click on the green buttons with a black cross to zoom in, on the green button with a dash to zoom out, or on the green arrows for adjacent maps.


METAR-TAF: